createdAt,value
2023-06-25T00:01:27.488Z,3.33
2023-06-25T00:03:55.704Z,3.08
2023-06-25T00:06:24.289Z,3.05
2023-06-25T00:08:52.345Z,3.42
2023-06-25T00:11:20.381Z,4.85
2023-06-25T00:13:49.788Z,4.43
2023-06-25T00:16:17.880Z,1.80
2023-06-25T00:18:45.973Z,4.05
2023-06-25T00:21:13.942Z,3.13
2023-06-25T00:23:41.874Z,3.22
2023-06-25T00:26:12.798Z,3.75
2023-06-25T00:28:40.809Z,3.53
2023-06-25T00:31:10.331Z,4.07
2023-06-25T00:33:39.238Z,4.45
2023-06-25T00:36:08.903Z,3.55
2023-06-25T00:38:39.813Z,3.38
2023-06-25T00:41:09.602Z,3.15
2023-06-25T00:43:42.441Z,3.85
2023-06-25T00:46:16.703Z,2.92
2023-06-25T00:48:48.589Z,3.30
2023-06-25T00:51:17.646Z,4.22
2023-06-25T00:53:46.532Z,3.30
2023-06-25T00:56:16.453Z,3.17
2023-06-25T00:58:44.578Z,3.40
2023-06-25T01:01:27.843Z,3.08
2023-06-25T01:03:58.686Z,3.45
2023-06-25T01:06:31.555Z,3.90
2023-06-25T01:09:01.451Z,2.47
2023-06-25T01:11:33.169Z,3.50
2023-06-25T01:14:04.338Z,4.00
2023-06-25T01:16:33.864Z,2.90
2023-06-25T01:19:05.544Z,2.95
2023-06-25T01:21:35.571Z,4.03
2023-06-25T01:24:05.252Z,2.60
2023-06-25T01:26:33.479Z,4.55
2023-06-25T01:29:01.724Z,2.88
2023-06-25T01:31:33.303Z,2.60
2023-06-25T01:34:01.981Z,2.90
2023-06-25T01:36:32.005Z,4.05
2023-06-25T01:39:02.976Z,3.35
2023-06-25T01:41:32.418Z,3.40
2023-06-25T01:44:00.479Z,4.60
2023-06-25T01:46:28.610Z,4.35
2023-06-25T01:48:56.919Z,3.55
2023-06-25T01:51:25.138Z,3.33
2023-06-25T01:53:53.243Z,4.10
2023-06-25T01:56:22.947Z,3.08
2023-06-25T01:58:54.246Z,3.13
2023-06-25T02:01:22.737Z,5.32
2023-06-25T02:03:51.391Z,3.08
2023-06-25T02:06:19.628Z,5.15
2023-06-25T02:08:47.642Z,4.25
2023-06-25T02:11:17.587Z,3.58
2023-06-25T02:13:45.816Z,4.15
2023-06-25T02:16:15.440Z,4.15
2023-06-25T02:18:43.769Z,2.42
2023-06-25T02:21:12.067Z,2.92
2023-06-25T02:23:40.251Z,3.10
2023-06-25T02:26:10.655Z,4.47
2023-06-25T02:28:38.875Z,4.28
2023-06-25T02:31:07.054Z,3.67
2023-06-25T02:33:36.520Z,3.05
2023-06-25T02:36:05.183Z,4.28
2023-06-25T02:38:33.349Z,3.13
2023-06-25T02:41:01.486Z,3.55
2023-06-25T02:43:31.440Z,3.50
2023-06-25T02:46:00.223Z,3.80
2023-06-25T02:48:28.424Z,3.95
2023-06-25T02:50:58.968Z,4.00
2023-06-25T02:53:27.255Z,4.30
2023-06-25T02:55:55.287Z,2.55
2023-06-25T02:58:24.970Z,3.33
2023-06-25T03:00:56.230Z,3.58
2023-06-25T03:03:27.001Z,4.53
2023-06-25T03:05:59.549Z,2.70
2023-06-25T03:08:30.607Z,3.67
2023-06-25T03:10:58.773Z,3.53
2023-06-25T03:13:26.783Z,3.30
2023-06-25T03:15:54.821Z,5.47
2023-06-25T03:18:23.184Z,4.13
2023-06-25T03:20:51.241Z,3.65
2023-06-25T03:23:21.614Z,3.75
2023-06-25T03:25:51.487Z,3.10
2023-06-25T03:28:28.838Z,3.65
2023-06-25T03:30:56.926Z,4.20
2023-06-25T03:33:25.182Z,3.97
2023-06-25T03:35:53.320Z,3.88
2023-06-25T03:38:22.641Z,3.47
2023-06-25T03:40:50.717Z,3.78
2023-06-25T03:43:18.765Z,3.55
2023-06-25T03:45:46.988Z,3.58
2023-06-25T03:48:15.524Z,4.30
2023-06-25T03:50:43.616Z,4.13
2023-06-25T03:53:12.498Z,4.03
2023-06-25T03:55:43.194Z,2.78
2023-06-25T03:58:11.710Z,3.15
2023-06-25T04:00:40.287Z,3.60
2023-06-25T04:03:08.545Z,3.53
2023-06-25T04:05:37.641Z,3.05
2023-06-25T04:08:06.435Z,2.55
2023-06-25T04:10:34.822Z,3.22
2023-06-25T04:13:04.366Z,3.58
2023-06-25T04:15:32.594Z,2.80
2023-06-25T04:18:00.834Z,4.88
2023-06-25T04:20:29.166Z,3.15
2023-06-25T04:23:00.289Z,4.40
2023-06-25T04:25:28.439Z,4.28
2023-06-25T04:27:57.302Z,3.10
2023-06-25T04:30:27.191Z,2.75
2023-06-25T04:32:55.854Z,3.35
2023-06-25T04:35:24.444Z,3.92
2023-06-25T04:37:55.673Z,3.28
2023-06-25T04:40:23.920Z,3.47
2023-06-25T04:42:55.098Z,4.60
2023-06-25T04:45:24.350Z,4.78
2023-06-25T04:47:53.830Z,4.38
2023-06-25T04:50:22.844Z,3.38
2023-06-25T04:52:50.816Z,4.15
2023-06-25T04:55:18.995Z,3.80
2023-06-25T04:57:47.100Z,3.75
2023-06-25T05:00:16.287Z,3.00
2023-06-25T05:02:44.311Z,2.95
2023-06-25T05:05:13.918Z,3.90
2023-06-25T05:07:42.098Z,2.25
2023-06-25T05:10:12.243Z,3.67
2023-06-25T05:12:40.171Z,2.58
2023-06-25T05:15:09.179Z,3.63
2023-06-25T05:17:37.192Z,3.10
2023-06-25T05:20:06.450Z,4.55
2023-06-25T05:22:38.094Z,3.72
2023-06-25T05:25:06.906Z,4.32
2023-06-25T05:27:34.916Z,3.13
2023-06-25T05:30:03.916Z,3.70
2023-06-25T05:32:32.458Z,5.10
2023-06-25T05:35:00.589Z,3.40
2023-06-25T05:37:28.608Z,3.42
2023-06-25T05:40:05.641Z,2.53
2023-06-25T05:42:33.694Z,3.67
2023-06-25T05:45:01.733Z,3.70
2023-06-25T05:47:29.733Z,3.30
2023-06-25T05:49:57.827Z,5.30
2023-06-25T05:52:25.785Z,4.75
2023-06-25T05:54:53.969Z,6.38
2023-06-25T05:57:23.380Z,4.18
2023-06-25T05:59:51.375Z,2.70
2023-06-25T06:02:19.626Z,3.90
2023-06-25T06:04:47.686Z,3.33
2023-06-25T06:07:16.585Z,4.22
2023-06-25T06:09:45.443Z,3.97
2023-06-25T06:12:14.184Z,2.97
2023-06-25T06:14:43.624Z,2.15
2023-06-25T06:17:11.833Z,2.80
2023-06-25T06:19:39.990Z,2.60
2023-06-25T06:22:08.481Z,4.53
2023-06-25T06:24:36.514Z,3.67
2023-06-25T06:27:04.911Z,3.90
2023-06-25T06:29:32.914Z,3.83
2023-06-25T06:32:02.473Z,3.72
2023-06-25T06:34:30.503Z,4.30
2023-06-25T06:36:58.505Z,3.65
2023-06-25T06:39:26.556Z,3.63
2023-06-25T06:41:54.589Z,3.67
2023-06-25T06:44:26.583Z,3.47
2023-06-25T06:46:56.778Z,5.20
2023-06-25T06:49:26.182Z,2.03
2023-06-25T06:51:54.412Z,3.90
2023-06-25T06:54:22.445Z,3.15
2023-06-25T06:56:50.823Z,2.70
2023-06-25T06:59:18.899Z,3.13
2023-06-25T07:01:46.996Z,4.22
2023-06-25T07:04:17.346Z,4.95
2023-06-25T07:06:51.069Z,4.63
2023-06-25T07:09:25.630Z,4.13
2023-06-25T07:11:55.240Z,3.72
2023-06-25T07:14:24.944Z,3.55
2023-06-25T07:16:52.977Z,3.70
2023-06-25T07:19:21.036Z,2.70
2023-06-25T07:21:50.554Z,3.15
2023-06-25T07:24:18.735Z,3.22
2023-06-25T07:26:46.769Z,3.25
2023-06-25T07:29:16.619Z,2.95
2023-06-25T07:31:44.650Z,4.13
2023-06-25T07:34:12.743Z,2.65
2023-06-25T07:36:40.743Z,4.22
2023-06-25T07:39:25.406Z,3.08
2023-06-25T07:41:59.135Z,3.35
2023-06-25T07:46:58.332Z,3.50
2023-06-25T07:49:26.430Z,4.05
2023-06-25T07:51:55.001Z,2.97
2023-06-25T07:54:24.410Z,3.50
2023-06-25T07:56:52.439Z,3.20
2023-06-25T07:59:20.414Z,3.83
2023-06-25T08:01:48.411Z,2.55
2023-06-25T08:04:16.620Z,3.15
2023-06-25T08:06:44.656Z,3.13
2023-06-25T08:09:12.861Z,2.45
2023-06-25T08:11:42.239Z,3.95
2023-06-25T08:14:10.418Z,3.17
2023-06-25T08:16:38.513Z,2.28
2023-06-25T08:19:06.502Z,2.00
2023-06-25T08:21:34.610Z,4.03
2023-06-25T08:24:02.740Z,3.17
2023-06-25T08:26:31.528Z,4.57
2023-06-25T08:29:01.057Z,3.65
2023-06-25T08:31:29.166Z,3.28
2023-06-25T08:33:57.217Z,2.40
2023-06-25T08:36:25.244Z,3.67
2023-06-25T08:38:53.308Z,3.92
2023-06-25T08:41:21.453Z,2.50
2023-06-25T08:43:49.627Z,3.25
2023-06-25T08:46:19.756Z,3.15
2023-06-25T08:48:49.110Z,4.13
2023-06-25T08:51:23.787Z,2.85
2023-06-25T08:53:52.102Z,2.75
2023-06-25T08:56:20.431Z,2.78
2023-06-25T08:58:48.508Z,2.90
2023-06-25T09:01:19.588Z,4.25
2023-06-25T09:03:48.698Z,3.47
2023-06-25T09:06:17.994Z,3.15
2023-06-25T09:08:46.658Z,2.67
2023-06-25T09:11:14.711Z,2.90
2023-06-25T09:13:42.772Z,3.08
2023-06-25T09:16:12.169Z,3.08
2023-06-25T09:18:41.848Z,2.75
2023-06-25T09:21:13.307Z,2.20
2023-06-25T09:23:43.482Z,3.55
2023-06-25T09:26:15.243Z,2.28
2023-06-25T09:28:50.438Z,2.83
2023-06-25T09:31:19.187Z,3.10
2023-06-25T09:33:53.514Z,2.35
2023-06-25T09:38:55.799Z,3.97
2023-06-25T09:41:27.615Z,1.80
2023-06-25T09:43:58.623Z,3.13
2023-06-25T09:46:28.392Z,2.80
2023-06-25T09:48:59.162Z,2.72
2023-06-25T09:51:33.018Z,2.45
2023-06-25T09:54:04.846Z,2.78
2023-06-25T09:56:36.876Z,1.70
2023-06-25T09:59:05.015Z,2.50
2023-06-25T10:01:33.272Z,2.47
2023-06-25T10:04:02.800Z,3.58
2023-06-25T10:06:31.026Z,2.58
2023-06-25T10:08:59.043Z,3.13
2023-06-25T10:11:28.048Z,2.10
2023-06-25T10:13:56.288Z,2.47
2023-06-25T10:16:30.241Z,3.15
2023-06-25T10:19:08.478Z,3.50
2023-06-25T10:21:37.824Z,3.25
2023-06-25T10:24:06.284Z,2.28
2023-06-25T10:26:37.612Z,1.95
2023-06-25T10:29:09.221Z,2.65
2023-06-25T10:31:42.521Z,2.75
2023-06-25T10:34:14.376Z,2.97
2023-06-25T10:36:51.626Z,3.65
2023-06-25T10:39:19.733Z,2.72
2023-06-25T10:41:49.804Z,3.08
2023-06-25T10:44:18.053Z,4.13
2023-06-25T10:46:46.102Z,2.72
2023-06-25T10:49:21.388Z,3.13
2023-06-25T10:51:49.885Z,2.75
2023-06-25T10:54:22.395Z,3.17
2023-06-25T10:56:50.360Z,3.42
2023-06-25T10:59:24.655Z,2.78
2023-06-25T11:01:53.139Z,2.83
2023-06-25T11:04:22.553Z,2.00
2023-06-25T11:06:57.005Z,2.75
2023-06-25T11:09:25.038Z,2.50
2023-06-25T11:11:53.965Z,2.95
2023-06-25T11:14:22.124Z,3.58
2023-06-25T11:16:50.258Z,2.20
2023-06-25T11:19:25.944Z,2.85
2023-06-25T11:21:55.849Z,2.90
2023-06-25T11:24:24.001Z,2.50
2023-06-25T11:27:00.003Z,2.55
2023-06-25T11:29:37.637Z,3.13
2023-06-25T11:32:09.146Z,3.08
2023-06-25T11:34:38.727Z,3.03
2023-06-25T11:37:15.360Z,2.65
2023-06-25T11:39:45.158Z,3.08
2023-06-25T11:42:15.798Z,3.20
2023-06-25T11:44:44.361Z,2.95
2023-06-25T11:47:15.465Z,2.42
2023-06-25T11:49:53.240Z,2.25
2023-06-25T11:52:22.745Z,2.50
2023-06-25T11:54:51.035Z,3.30
2023-06-25T11:57:19.839Z,2.15
2023-06-25T11:59:47.854Z,2.10
2023-06-25T12:02:16.027Z,2.03
2023-06-25T12:04:44.150Z,2.40
2023-06-25T12:07:12.428Z,3.40
2023-06-25T12:09:41.844Z,3.20
2023-06-25T12:12:09.994Z,1.98
2023-06-25T12:14:37.995Z,2.95
2023-06-25T12:17:06.405Z,3.28
2023-06-25T12:19:34.413Z,2.90
2023-06-25T12:22:02.506Z,2.92
2023-06-25T12:24:30.531Z,2.13
2023-06-25T12:27:00.024Z,2.50
2023-06-25T12:29:28.098Z,3.28
2023-06-25T12:31:56.157Z,2.97
2023-06-25T12:34:24.368Z,3.25
2023-06-25T12:36:52.426Z,3.72
2023-06-25T12:39:20.492Z,2.15
2023-06-25T12:41:48.585Z,3.63
2023-06-25T12:44:17.946Z,1.85
2023-06-25T12:46:46.052Z,2.58
2023-06-25T12:49:14.249Z,2.72
2023-06-25T12:51:42.435Z,3.70
2023-06-25T12:54:10.668Z,2.97
2023-06-25T12:56:38.747Z,2.65
2023-06-25T12:59:06.875Z,3.60
2023-06-25T13:01:36.343Z,3.03
2023-06-25T13:04:04.529Z,2.45
2023-06-25T13:06:32.775Z,2.30
2023-06-25T13:09:00.795Z,3.00
2023-06-25T13:11:28.962Z,2.60
2023-06-25T13:13:56.934Z,2.17
2023-06-25T13:16:24.985Z,3.10
2023-06-25T13:18:54.407Z,3.00
2023-06-25T13:21:22.515Z,3.22
2023-06-25T13:23:50.517Z,2.45
2023-06-25T13:26:18.449Z,2.83
2023-06-25T13:28:46.475Z,2.80
2023-06-25T13:31:14.657Z,1.40
2023-06-25T13:33:42.651Z,3.72
2023-06-25T13:36:12.275Z,2.55
2023-06-25T13:38:41.346Z,2.17
2023-06-25T13:41:09.438Z,2.50
2023-06-25T13:43:37.560Z,1.73
2023-06-25T13:46:05.860Z,4.00
2023-06-25T13:48:33.932Z,2.30
2023-06-25T13:51:02.072Z,3.65
2023-06-25T13:53:31.687Z,2.47
2023-06-25T13:55:59.710Z,2.50
2023-06-25T13:58:28.000Z,2.30
2023-06-25T14:00:56.444Z,2.28
2023-06-25T14:03:25.249Z,2.80
2023-06-25T14:05:53.722Z,3.15
2023-06-25T14:08:21.764Z,2.97
2023-06-25T14:10:51.413Z,2.75
2023-06-25T14:13:21.335Z,3.53
2023-06-25T14:15:55.938Z,2.60
2023-06-25T14:18:27.184Z,2.55
2023-06-25T14:20:55.273Z,3.50
2023-06-25T14:23:23.641Z,3.15
2023-06-25T14:25:54.421Z,3.85
2023-06-25T14:28:22.430Z,4.32
2023-06-25T14:30:50.807Z,3.40
2023-06-25T14:33:18.793Z,2.85
2023-06-25T14:35:46.880Z,2.60
2023-06-25T14:38:15.032Z,2.42
2023-06-25T14:40:43.055Z,2.67
2023-06-25T14:43:12.552Z,3.20
2023-06-25T14:45:40.883Z,3.22
2023-06-25T14:48:10.463Z,2.50
2023-06-25T14:50:38.626Z,2.80
2023-06-25T14:53:06.669Z,2.88
2023-06-25T14:55:40.006Z,3.15
2023-06-25T14:58:09.498Z,2.95
2023-06-25T15:00:38.846Z,2.63
2023-06-25T15:03:07.070Z,2.08
2023-06-25T15:05:35.493Z,4.07
2023-06-25T15:08:04.026Z,2.88
2023-06-25T15:10:32.001Z,2.63
2023-06-25T15:13:02.305Z,3.08
2023-06-25T15:15:30.375Z,2.10
2023-06-25T15:17:59.830Z,3.78
2023-06-25T15:20:28.233Z,2.78
2023-06-25T15:22:56.220Z,2.88
2023-06-25T15:25:24.426Z,3.25
2023-06-25T15:27:52.456Z,3.10
2023-06-25T15:30:20.548Z,3.55
2023-06-25T15:32:48.696Z,3.20
2023-06-25T15:35:18.136Z,3.88
2023-06-25T15:37:46.123Z,3.08
2023-06-25T15:40:14.637Z,3.22
2023-06-25T15:42:42.717Z,5.47
2023-06-25T15:45:11.786Z,4.13
2023-06-25T15:47:39.825Z,3.20
2023-06-25T15:50:08.751Z,3.80
2023-06-25T15:52:38.148Z,3.75
2023-06-25T15:55:07.034Z,2.47
2023-06-25T15:57:35.069Z,3.28
2023-06-25T16:00:03.647Z,3.63
2023-06-25T16:02:42.781Z,3.67
2023-06-25T16:05:10.963Z,3.88
2023-06-25T16:07:40.343Z,3.60
2023-06-25T16:10:08.600Z,2.35
2023-06-25T16:12:36.740Z,2.65
2023-06-25T16:15:04.973Z,3.22
2023-06-25T16:17:33.027Z,3.72
2023-06-25T16:20:11.715Z,3.25
2023-06-25T16:22:41.805Z,4.28
2023-06-25T16:25:10.230Z,3.10
2023-06-25T16:27:39.938Z,4.13
2023-06-25T16:30:08.766Z,5.22
2023-06-25T16:32:37.283Z,2.83
2023-06-25T16:35:06.013Z,4.15
2023-06-25T16:37:34.052Z,4.15
2023-06-25T16:40:06.687Z,4.20
2023-06-25T16:42:35.680Z,5.65
2023-06-25T16:45:06.905Z,3.60
2023-06-25T16:47:35.106Z,4.72
2023-06-25T16:50:03.171Z,3.80
2023-06-25T16:52:32.441Z,4.70
2023-06-25T16:55:00.476Z,4.18
2023-06-25T16:57:29.830Z,4.70
2023-06-25T16:59:57.958Z,5.20
2023-06-25T17:02:27.765Z,5.05
2023-06-25T17:04:56.181Z,3.38
2023-06-25T17:07:24.436Z,4.75
2023-06-25T17:09:52.549Z,4.85
2023-06-25T17:12:20.629Z,5.60
2023-06-25T17:14:50.143Z,6.68
2023-06-25T17:17:19.653Z,6.63
2023-06-25T17:19:47.760Z,7.47
2023-06-25T17:22:15.880Z,6.15
2023-06-25T17:24:47.511Z,8.30
2023-06-25T17:27:15.637Z,6.97
2023-06-25T17:29:43.790Z,7.72
2023-06-25T17:32:13.353Z,7.82
2023-06-25T17:34:44.146Z,6.72
2023-06-25T17:37:14.266Z,5.80
2023-06-25T17:39:48.201Z,6.63
2023-06-25T17:42:33.314Z,6.75
2023-06-25T17:45:01.403Z,4.40
2023-06-25T17:47:31.110Z,7.35
2023-06-25T17:50:01.283Z,5.70
2023-06-25T17:52:31.257Z,6.10
2023-06-25T17:54:59.270Z,6.25
2023-06-25T17:57:28.460Z,8.02
2023-06-25T18:00:00.831Z,7.05
2023-06-25T18:02:36.170Z,5.85
2023-06-25T18:05:04.484Z,6.28
2023-06-25T18:07:33.129Z,6.68
2023-06-25T18:10:07.964Z,6.90
2023-06-25T18:12:39.506Z,5.75
2023-06-25T18:15:09.024Z,6.45
2023-06-25T18:17:43.878Z,6.07
2023-06-25T18:20:12.682Z,7.07
2023-06-25T18:22:41.546Z,6.20
2023-06-25T18:25:09.698Z,7.10
2023-06-25T18:27:37.657Z,6.22
2023-06-25T18:30:06.705Z,6.80
2023-06-25T18:32:34.793Z,5.22
2023-06-25T18:35:04.660Z,6.75
2023-06-25T18:37:32.810Z,5.88
2023-06-25T18:40:00.898Z,4.20
2023-06-25T18:42:28.906Z,6.07
2023-06-25T18:44:56.991Z,5.65
2023-06-25T18:47:30.740Z,6.00
2023-06-25T18:49:58.902Z,5.63
2023-06-25T18:52:29.633Z,6.28
2023-06-25T18:54:57.631Z,5.65
2023-06-25T18:57:25.875Z,5.25
2023-06-25T18:59:53.834Z,5.72
2023-06-25T19:02:22.010Z,6.00
2023-06-25T19:04:50.080Z,5.35
2023-06-25T19:07:18.534Z,6.82
2023-06-25T19:09:49.226Z,6.30
2023-06-25T19:12:17.520Z,7.13
2023-06-25T19:14:45.858Z,6.40
2023-06-25T19:17:14.841Z,7.78
2023-06-25T19:19:42.923Z,5.07
2023-06-25T19:22:10.887Z,6.85
2023-06-25T19:24:39.112Z,6.80
2023-06-25T19:27:09.698Z,7.07
2023-06-25T19:29:38.584Z,6.57
2023-06-25T19:32:07.855Z,9.32
2023-06-25T19:34:36.058Z,8.00
2023-06-25T19:37:04.254Z,6.50
2023-06-25T19:39:32.292Z,6.43
2023-06-25T19:42:00.330Z,7.47
2023-06-25T19:44:29.840Z,6.70
2023-06-25T19:46:57.957Z,7.50
2023-06-25T19:49:26.497Z,8.98
2023-06-25T19:51:54.555Z,8.10
2023-06-25T19:54:22.662Z,7.30
2023-06-25T19:56:50.875Z,7.32
2023-06-25T19:59:19.283Z,6.45
2023-06-25T20:01:48.729Z,7.00
2023-06-25T20:04:16.847Z,7.45
2023-06-25T20:06:44.919Z,6.32
2023-06-25T20:09:12.922Z,9.40
2023-06-25T20:11:40.986Z,7.03
2023-06-25T20:14:09.133Z,6.30
2023-06-25T20:16:37.381Z,8.85
2023-06-25T20:19:07.244Z,6.72
2023-06-25T20:21:35.307Z,7.22
2023-06-25T20:24:03.381Z,6.63
2023-06-25T20:26:36.242Z,6.20
2023-06-25T20:29:04.362Z,7.00
2023-06-25T20:31:32.610Z,6.20
2023-06-25T20:34:00.651Z,7.18
2023-06-25T20:36:30.325Z,6.03
2023-06-25T20:38:58.340Z,5.78
2023-06-25T20:41:33.554Z,5.55
2023-06-25T20:44:02.684Z,7.15
2023-06-25T20:46:30.845Z,6.50
2023-06-25T20:48:58.943Z,6.80
2023-06-25T20:51:31.222Z,6.72
2023-06-25T20:53:59.299Z,7.50
2023-06-25T20:56:27.583Z,6.70
2023-06-25T20:58:55.657Z,6.03
2023-06-25T21:01:23.760Z,7.05
2023-06-25T21:03:51.825Z,6.25
2023-06-25T21:06:20.061Z,7.05
2023-06-25T21:08:50.358Z,8.65
2023-06-25T21:11:21.061Z,11.20
2023-06-25T21:13:49.105Z,10.27
2023-06-25T21:16:17.397Z,11.57
2023-06-25T21:18:45.615Z,9.38
2023-06-25T21:21:13.750Z,8.73
2023-06-25T21:23:41.781Z,8.55
2023-06-25T21:26:11.577Z,9.15
2023-06-25T21:28:39.583Z,8.50
2023-06-25T21:31:07.723Z,6.28
2023-06-25T21:33:36.071Z,6.10
2023-06-25T21:36:04.301Z,7.00
2023-06-25T21:38:32.421Z,5.43
2023-06-25T21:41:00.517Z,4.63
2023-06-25T21:43:29.788Z,6.78
2023-06-25T21:45:57.896Z,7.13
2023-06-25T21:48:25.901Z,7.70
2023-06-25T21:50:59.845Z,6.18
2023-06-25T21:53:28.663Z,6.60
2023-06-25T21:55:56.747Z,5.30
2023-06-25T21:58:25.367Z,6.10
2023-06-25T22:00:55.014Z,7.57
2023-06-25T22:03:23.092Z,5.22
2023-06-25T22:05:51.254Z,6.53
2023-06-25T22:08:19.513Z,6.75
2023-06-25T22:10:47.741Z,5.28
2023-06-25T22:13:18.609Z,6.93
2023-06-25T22:15:47.361Z,5.85
2023-06-25T22:18:17.423Z,5.68
2023-06-25T22:20:45.822Z,6.60
2023-06-25T22:23:14.137Z,6.03
2023-06-25T22:25:42.440Z,6.60
2023-06-25T22:28:11.420Z,5.07
2023-06-25T22:30:39.807Z,6.32
2023-06-25T22:33:08.511Z,4.93
2023-06-25T22:35:38.079Z,6.95
2023-06-25T22:38:06.305Z,6.25
2023-06-25T22:40:34.375Z,5.70
2023-06-25T22:43:02.798Z,5.85
2023-06-25T22:45:31.703Z,8.40
2023-06-25T22:47:59.839Z,5.57
2023-06-25T22:50:32.426Z,6.70
2023-06-25T22:53:05.313Z,4.72
2023-06-25T22:55:33.376Z,4.28
2023-06-25T22:58:01.381Z,6.38
2023-06-25T23:00:29.545Z,5.18
2023-06-25T23:02:57.599Z,7.03
2023-06-25T23:05:25.731Z,5.97
2023-06-25T23:07:53.825Z,6.57
2023-06-25T23:10:23.298Z,4.60
2023-06-25T23:12:51.371Z,4.63
2023-06-25T23:15:19.541Z,5.22
2023-06-25T23:17:47.640Z,6.35
2023-06-25T23:20:18.345Z,5.20
2023-06-25T23:22:46.557Z,5.82
2023-06-25T23:25:28.291Z,5.78
2023-06-25T23:27:59.648Z,7.18
2023-06-25T23:30:28.549Z,5.32
2023-06-25T23:32:59.295Z,5.03
2023-06-25T23:35:27.904Z,5.05
2023-06-25T23:37:56.019Z,5.75
2023-06-25T23:40:24.217Z,5.10
2023-06-25T23:42:52.319Z,5.40
2023-06-25T23:45:21.840Z,5.55
2023-06-25T23:47:50.412Z,4.03
2023-06-25T23:50:18.636Z,4.63
2023-06-25T23:52:46.672Z,4.55
2023-06-25T23:55:14.799Z,5.60
2023-06-25T23:57:42.854Z,4.90
